createdAt,value
2018-09-01T00:00:16.250Z,3.87
2018-09-01T00:02:45.016Z,3.67
2018-09-01T00:05:13.731Z,4.03
2018-09-01T00:07:42.547Z,3.23
2018-09-01T00:10:11.249Z,4.30
2018-09-01T00:12:39.921Z,3.47
2018-09-01T00:15:08.633Z,3.10
2018-09-01T00:17:37.307Z,3.70
2018-09-01T00:20:06.058Z,3.20
2018-09-01T00:22:34.781Z,2.97
2018-09-01T00:25:03.520Z,3.20
2018-09-01T00:27:32.270Z,3.47
2018-09-01T00:30:01.006Z,3.83
2018-09-01T00:32:29.720Z,3.03
2018-09-01T00:34:58.457Z,3.90
2018-09-01T00:37:32.431Z,2.83
2018-09-01T00:40:01.127Z,3.77
2018-09-01T00:42:29.922Z,3.47
2018-09-01T00:44:58.684Z,4.00
2018-09-01T00:47:27.313Z,3.50
2018-09-01T00:49:56.107Z,3.60
2018-09-01T00:52:24.903Z,4.07
2018-09-01T00:54:53.638Z,4.10
2018-09-01T00:57:22.293Z,3.60
2018-09-01T00:59:51.029Z,3.63
2018-09-01T01:02:19.744Z,3.57
2018-09-01T01:04:48.500Z,3.50
2018-09-01T01:07:17.054Z,4.00
2018-09-01T01:09:46.030Z,4.00
2018-09-01T01:12:14.745Z,4.10
2018-09-01T01:14:43.381Z,4.43
2018-09-01T01:17:12.056Z,3.30
2018-09-01T01:19:41.554Z,3.83
2018-09-01T01:22:10.247Z,4.10
2018-09-01T01:24:38.942Z,4.00
2018-09-01T01:27:07.676Z,3.83
2018-09-01T01:29:36.333Z,3.80
2018-09-01T01:32:04.989Z,4.23
2018-09-01T01:34:33.663Z,4.00
2018-09-01T01:37:02.369Z,4.27
2018-09-01T01:39:31.053Z,4.67
2018-09-01T01:41:59.810Z,4.87
2018-09-01T01:44:28.548Z,4.83
2018-09-01T01:46:57.341Z,3.93
2018-09-01T01:49:26.121Z,4.10
2018-09-01T01:51:54.872Z,3.83
2018-09-01T01:54:23.543Z,5.23
2018-09-01T01:56:52.341Z,4.47
2018-09-01T01:59:21.096Z,4.27
2018-09-01T02:01:49.791Z,4.70
2018-09-01T02:04:18.489Z,3.77
2018-09-01T02:06:47.204Z,4.50
2018-09-01T02:09:15.929Z,4.00
2018-09-01T02:11:44.716Z,4.67
2018-09-01T02:14:14.247Z,5.53
2018-09-01T02:16:43.063Z,4.60
2018-09-01T02:19:11.639Z,4.90
2018-09-01T02:21:40.335Z,4.13
2018-09-01T02:24:09.029Z,4.17
2018-09-01T02:26:37.804Z,4.23
2018-09-01T02:29:06.637Z,4.47
2018-09-01T02:31:35.255Z,4.67
2018-09-01T02:34:04.210Z,4.50
2018-09-01T02:36:32.905Z,4.03
2018-09-01T02:39:01.543Z,4.50
2018-09-01T02:41:30.236Z,5.27
2018-09-01T02:43:58.831Z,5.17
2018-09-01T02:46:27.446Z,4.47
2018-09-01T02:48:56.221Z,4.87
2018-09-01T02:51:24.934Z,4.60
2018-09-01T02:53:53.512Z,4.50
2018-09-01T02:56:22.193Z,4.13
2018-09-01T02:58:50.923Z,4.37
2018-09-01T03:01:24.860Z,5.57
2018-09-01T03:03:53.553Z,4.70
2018-09-01T03:06:22.288Z,4.60
2018-09-01T03:08:50.985Z,4.70
2018-09-01T03:11:19.779Z,4.73
2018-09-01T03:13:48.434Z,4.87
2018-09-01T03:16:17.300Z,4.00
2018-09-01T03:18:45.947Z,4.63
2018-09-01T03:21:21.262Z,4.90
2018-09-01T03:23:49.881Z,4.50
2018-09-01T03:26:18.631Z,4.20
2018-09-01T03:28:47.286Z,4.60
2018-09-01T03:31:15.865Z,4.70
2018-09-01T03:33:44.496Z,5.70
2018-09-01T03:36:13.252Z,4.93
2018-09-01T03:38:41.968Z,4.60
2018-09-01T03:41:10.633Z,6.10
2018-09-01T03:43:40.159Z,5.20
2018-09-01T03:46:08.832Z,4.70
2018-09-01T03:48:37.568Z,4.70
2018-09-01T03:51:06.603Z,4.57
2018-09-01T03:53:35.279Z,4.87
2018-09-01T03:56:03.935Z,4.30
2018-09-01T03:58:32.629Z,4.47
2018-09-01T04:01:01.351Z,5.27
2018-09-01T04:03:29.941Z,4.83
2018-09-01T04:05:58.795Z,4.80
2018-09-01T04:08:27.650Z,5.00
2018-09-01T04:10:56.319Z,4.80
2018-09-01T04:13:24.880Z,4.90
2018-09-01T04:15:53.596Z,4.70
2018-09-01T04:18:22.272Z,5.13
2018-09-01T04:20:51.006Z,4.90
2018-09-01T04:23:19.743Z,4.83
2018-09-01T04:25:48.453Z,5.10
2018-09-01T04:28:17.133Z,4.60
2018-09-01T04:36:56.360Z,4.60
2018-09-01T04:39:31.407Z,4.57
2018-09-01T04:50:55.166Z,5.70
2018-09-01T04:53:26.294Z,5.93
2018-09-01T04:56:00.480Z,5.77
2018-09-01T04:58:29.281Z,4.93
2018-09-01T05:00:58.068Z,5.03
2018-09-01T05:03:26.822Z,4.90
2018-09-01T05:05:55.677Z,5.30
2018-09-01T05:08:24.412Z,4.80
2018-09-01T05:10:53.288Z,4.87
2018-09-01T05:13:21.981Z,4.63
2018-09-01T05:15:50.956Z,4.63
2018-09-01T05:18:19.730Z,4.97
2018-09-01T05:20:48.666Z,5.00
2018-09-01T05:23:17.461Z,4.87
2018-09-01T05:25:46.302Z,4.40
2018-09-01T05:28:15.231Z,4.83
2018-09-01T05:30:44.125Z,4.53
2018-09-01T05:33:12.981Z,4.90
2018-09-01T05:35:41.695Z,4.60
2018-09-01T05:38:10.490Z,4.80
2018-09-01T05:40:39.325Z,5.37
2018-09-01T05:43:08.341Z,4.77
2018-09-01T05:45:37.229Z,4.30
2018-09-01T05:48:06.131Z,4.70
2018-09-01T05:50:34.889Z,4.23
2018-09-01T05:53:03.540Z,3.90
2018-09-01T05:55:32.174Z,3.80
2018-09-01T06:00:32.953Z,3.83
2018-09-01T06:17:50.223Z,4.00
2018-09-01T06:20:19.026Z,4.53
2018-09-01T06:22:48.218Z,4.27
2018-09-01T06:25:16.913Z,5.33
2018-09-01T06:27:48.288Z,5.20
2018-09-01T06:30:21.663Z,4.90
2018-09-01T09:35:43.085Z,1.05
2018-09-01T10:00:30.176Z,2.17
2018-09-01T10:07:54.973Z,1.70
2018-09-01T10:10:24.048Z,2.10
2018-09-01T10:12:53.873Z,1.70
2018-09-01T10:15:22.965Z,1.50
2018-09-01T10:17:51.816Z,1.63
2018-09-01T10:20:20.700Z,1.60
2018-09-01T10:22:49.207Z,1.83
2018-09-01T10:25:17.866Z,1.63
2018-09-01T10:27:46.817Z,1.63
2018-09-01T11:03:05.174Z,2.00
2018-09-01T11:05:42.877Z,1.90
2018-09-01T11:08:12.485Z,1.70
2018-09-01T11:10:46.175Z,2.23
2018-09-01T11:13:21.951Z,1.30
2018-09-01T11:15:51.086Z,1.67
2018-09-01T11:18:19.880Z,1.53
2018-09-01T11:30:40.897Z,1.70
2018-09-01T11:33:09.486Z,1.60
2018-09-01T11:35:38.000Z,1.70
2018-09-01T11:38:07.252Z,1.60
2018-09-01T11:40:35.961Z,2.00
2018-09-01T11:43:04.690Z,1.30
2018-09-01T11:57:45.067Z,1.30
2018-09-01T12:00:14.107Z,1.27
2018-09-01T12:02:43.358Z,1.60
2018-09-01T12:05:11.973Z,1.37
2018-09-01T12:23:59.539Z,1.40
2018-09-01T12:31:24.085Z,1.73
2018-09-01T12:38:48.412Z,2.00
2018-09-01T12:58:33.935Z,1.75
2018-09-01T13:03:30.338Z,1.30
2018-09-01T13:05:58.906Z,1.53
2018-09-01T13:08:27.411Z,1.70
2018-09-01T13:10:55.972Z,2.00
2018-09-01T13:13:24.512Z,1.73
2018-09-01T13:15:53.047Z,1.20
2018-09-01T13:18:21.817Z,2.00
2018-09-01T13:20:50.399Z,1.87
2018-09-01T13:23:19.168Z,1.60
2018-09-01T13:25:47.795Z,1.57
2018-09-01T13:28:17.518Z,1.60
2018-09-01T13:30:46.156Z,2.00
2018-09-01T13:33:14.873Z,1.53
2018-09-01T13:35:43.486Z,1.50
2018-09-01T13:38:12.082Z,1.70
2018-09-01T13:40:43.656Z,1.80
2018-09-01T13:43:12.612Z,1.20
2018-09-01T13:45:41.196Z,1.80
2018-09-01T13:48:09.773Z,1.60
2018-09-01T13:50:38.304Z,1.57
2018-09-01T13:53:07.221Z,1.67
2018-09-01T13:55:35.979Z,1.93
2018-09-01T13:58:04.644Z,1.87
2018-09-01T14:00:33.860Z,1.50
2018-09-01T14:03:02.784Z,2.20
2018-09-01T14:05:31.832Z,1.67
2018-09-01T14:08:00.573Z,1.60
2018-09-01T14:10:29.342Z,1.73
2018-09-01T14:12:58.177Z,1.70
2018-09-01T14:15:26.873Z,1.70
2018-09-01T14:17:55.929Z,1.60
2018-09-01T14:20:24.701Z,1.90
2018-09-01T14:22:53.560Z,1.67
2018-09-01T14:25:22.406Z,2.10
2018-09-01T14:27:51.370Z,1.90
2018-09-01T14:30:20.136Z,1.97
2018-09-01T14:32:49.090Z,2.03
2018-09-01T14:35:17.757Z,2.63
2018-09-01T14:37:46.360Z,1.83
2018-09-01T14:40:15.227Z,1.60
2018-09-01T14:42:44.123Z,1.80
2018-09-01T14:45:12.760Z,1.53
2018-09-01T14:47:41.435Z,2.23
2018-09-01T14:50:10.673Z,2.20
2018-09-01T14:52:39.246Z,1.97
2018-09-01T14:55:07.922Z,1.83
2018-09-01T14:57:36.637Z,1.83
2018-09-01T15:00:06.192Z,1.80
2018-09-01T15:02:35.085Z,1.83
2018-09-01T15:05:04.217Z,1.80
2018-09-01T15:07:32.799Z,2.07
2018-09-01T15:10:01.453Z,1.77
2018-09-01T15:12:30.108Z,1.80
2018-09-01T15:14:58.819Z,1.70
2018-09-01T15:17:27.455Z,1.80
2018-09-01T15:19:56.241Z,2.00
2018-09-01T15:22:24.788Z,1.60
2018-09-01T15:24:53.360Z,2.00
2018-09-01T15:27:22.133Z,1.83
2018-09-01T15:29:50.691Z,1.87
2018-09-01T15:32:19.252Z,1.70
2018-09-01T15:34:47.720Z,2.03
2018-09-01T15:37:16.308Z,1.80
2018-09-01T15:39:44.879Z,2.30
2018-09-01T15:42:13.509Z,2.23
2018-09-01T15:44:42.631Z,1.70
2018-09-01T15:47:11.565Z,1.47
2018-09-01T15:49:40.164Z,2.10
2018-09-01T15:54:44.431Z,1.30
2018-09-01T15:57:13.647Z,1.80
2018-09-01T15:59:42.289Z,2.03
2018-09-01T16:02:11.376Z,2.00
2018-09-01T16:04:40.039Z,1.80
2018-09-01T16:07:08.809Z,1.70
2018-09-01T16:09:37.549Z,2.30
2018-09-01T16:12:06.439Z,2.00
2018-09-01T16:14:35.456Z,1.80
2018-09-01T16:17:04.030Z,2.03
2018-09-01T16:19:32.684Z,1.70
2018-09-01T16:22:01.482Z,2.00
2018-09-01T16:24:30.478Z,1.90
2018-09-01T16:26:59.431Z,2.00
2018-09-01T16:29:28.785Z,1.60
2018-09-01T16:31:57.562Z,1.83
2018-09-01T16:34:26.371Z,1.90
2018-09-01T16:36:55.292Z,2.07
2018-09-01T16:39:24.377Z,2.10
2018-09-01T16:41:54.569Z,1.90
2018-09-01T16:44:23.284Z,1.73
2018-09-01T16:46:52.455Z,1.90
2018-09-01T16:49:21.453Z,2.00
2018-09-01T16:51:50.346Z,2.03
2018-09-01T16:54:19.121Z,2.00
2018-09-01T16:56:48.204Z,2.90
2018-09-01T16:59:16.934Z,2.30
2018-09-01T17:01:45.688Z,2.60
2018-09-01T17:04:14.503Z,2.87
2018-09-01T17:06:43.406Z,3.23
2018-09-01T17:09:12.344Z,3.13
2018-09-01T17:11:42.004Z,2.50
2018-09-01T17:14:10.794Z,2.30
2018-09-01T17:16:39.599Z,2.83
2018-09-01T17:19:08.507Z,2.27
2018-09-01T17:21:37.182Z,2.67
2018-09-01T17:24:06.072Z,2.20
2018-09-01T17:26:35.310Z,2.43
2018-09-01T17:29:04.096Z,2.80
2018-09-01T17:31:32.892Z,2.73
2018-09-01T17:34:02.091Z,2.40
2018-09-01T17:36:30.942Z,2.10
2018-09-01T17:38:59.670Z,2.70
2018-09-01T17:41:28.361Z,2.50
2018-09-01T17:43:57.128Z,2.20
2018-09-01T17:46:25.904Z,2.30
2018-09-01T17:48:54.621Z,2.53
2018-09-01T17:51:23.374Z,2.63
2018-09-01T17:53:52.171Z,2.37
2018-09-01T17:56:21.421Z,2.80
2018-09-01T17:58:50.220Z,2.57
2018-09-01T18:01:20.378Z,2.37
2018-09-01T18:03:49.274Z,1.87
2018-09-01T18:06:17.921Z,2.87
2018-09-01T18:08:46.582Z,2.33
2018-09-01T18:11:15.274Z,2.77
2018-09-01T18:13:44.016Z,2.83
2018-09-01T18:16:12.648Z,3.27
2018-09-01T18:18:41.354Z,3.03
2018-09-01T18:21:10.011Z,2.67
2018-09-01T18:23:38.774Z,2.50
2018-09-01T18:26:08.409Z,2.50
2018-09-01T18:28:41.888Z,2.50
2018-09-01T18:31:10.800Z,2.10
2018-09-01T18:33:40.336Z,2.13
2018-09-01T18:36:13.817Z,2.20
2018-09-01T18:38:42.447Z,2.73
2018-09-01T18:41:11.212Z,2.63
2018-09-01T18:43:39.839Z,2.60
2018-09-01T18:46:08.771Z,2.93
2018-09-01T18:48:37.467Z,2.73
2018-09-01T18:51:06.103Z,2.93
2018-09-01T18:53:34.761Z,8.03
2018-09-01T18:56:03.445Z,3.00
2018-09-01T18:58:32.109Z,3.47
2018-09-01T19:01:00.765Z,2.93
2018-09-01T19:03:29.460Z,2.90
2018-09-01T19:05:58.163Z,2.83
2018-09-01T19:08:26.871Z,3.73
2018-09-01T19:10:55.546Z,3.20
2018-09-01T19:13:24.136Z,3.10
2018-09-01T19:15:52.797Z,2.90
2018-09-01T19:18:21.439Z,3.40
2018-09-01T19:20:50.128Z,3.30
2018-09-01T19:23:18.704Z,3.10
2018-09-01T19:25:47.364Z,3.10
2018-09-01T19:28:16.174Z,3.03
2018-09-01T19:30:44.830Z,3.80
2018-09-01T19:33:13.425Z,3.37
2018-09-01T19:35:44.961Z,2.63
2018-09-01T19:38:13.576Z,2.17
2018-09-01T19:40:42.332Z,2.90
2018-09-01T19:43:11.171Z,3.47
2018-09-01T19:45:39.939Z,3.53
2018-09-01T19:48:08.507Z,3.13
2018-09-01T19:50:37.202Z,3.70
2018-09-01T19:53:05.898Z,2.83
2018-09-01T19:55:34.685Z,2.80
2018-09-01T19:58:03.359Z,3.17
2018-09-01T20:00:32.056Z,2.70
2018-09-01T20:03:00.751Z,2.93
2018-09-01T20:12:29.134Z,3.53
2018-09-01T20:14:57.829Z,4.40
2018-09-01T20:17:26.606Z,5.00
2018-09-01T20:19:55.242Z,7.70
2018-09-01T20:22:23.896Z,8.30
2018-09-01T20:24:52.612Z,6.20
2018-09-01T20:27:21.307Z,4.97
2018-09-01T20:29:50.002Z,5.00
2018-09-01T20:32:18.659Z,4.67
2018-09-01T20:34:48.274Z,4.63
2018-09-01T20:37:18.368Z,4.97
2018-09-01T20:39:47.505Z,5.50
2018-09-01T20:42:17.101Z,4.93
2018-09-01T20:44:45.759Z,4.40
2018-09-01T20:47:14.454Z,5.10
2018-09-01T20:49:43.087Z,5.20
2018-09-01T20:52:11.764Z,5.30
2018-09-01T20:54:40.437Z,5.07
2018-09-01T20:57:09.073Z,5.63
2018-09-01T20:59:37.768Z,4.70
2018-09-01T21:02:06.543Z,4.97
2018-09-01T21:04:35.159Z,5.13
2018-09-01T21:07:03.854Z,4.70
2018-09-01T21:09:32.489Z,5.80
2018-09-01T21:12:01.192Z,7.37
2018-09-01T21:14:29.830Z,8.70
2018-09-01T21:16:58.456Z,7.73
2018-09-01T21:19:27.171Z,9.80
2018-09-01T21:21:55.870Z,12.70
2018-09-01T21:24:24.587Z,13.57
2018-09-01T21:26:53.317Z,9.80
2018-09-01T21:29:21.974Z,7.33
2018-09-01T21:31:50.690Z,7.03
2018-09-01T21:34:19.401Z,5.60
2018-09-01T21:36:48.080Z,5.83
2018-09-01T21:39:16.756Z,5.20
2018-09-01T21:41:45.422Z,5.63
2018-09-01T21:44:14.027Z,4.57
2018-09-01T21:46:42.662Z,4.50
2018-09-01T21:49:11.297Z,4.87
2018-09-01T21:51:39.951Z,4.20
2018-09-01T21:54:08.631Z,5.40
2018-09-01T21:56:37.323Z,4.47
2018-09-01T21:59:06.039Z,4.77
2018-09-01T22:01:35.894Z,3.80
2018-09-01T22:04:04.690Z,4.50
2018-09-01T22:06:33.405Z,4.67
2018-09-01T22:09:02.080Z,4.80
2018-09-01T22:11:37.095Z,4.43
2018-09-01T22:14:06.331Z,5.20
2018-09-01T22:16:35.047Z,5.13
2018-09-01T22:19:03.722Z,5.10
2018-09-01T22:21:32.417Z,5.40
2018-09-01T22:24:01.043Z,5.47
2018-09-01T22:26:29.728Z,5.10
2018-09-01T22:28:58.368Z,4.33
2018-09-01T22:31:27.078Z,5.63
2018-09-01T22:33:55.674Z,5.60
2018-09-01T22:36:24.388Z,5.00
2018-09-01T22:38:53.153Z,4.70
2018-09-01T22:41:21.800Z,4.30
2018-09-01T22:43:50.476Z,5.30
2018-09-01T22:46:19.230Z,5.70
2018-09-01T22:48:47.886Z,4.73
2018-09-01T22:51:16.702Z,5.90
2018-09-01T22:53:45.377Z,5.57
2018-09-01T22:56:14.013Z,7.13
2018-09-01T22:58:42.730Z,5.50
2018-09-01T23:01:11.404Z,6.10
2018-09-01T23:03:40.081Z,5.17
2018-09-01T23:06:08.715Z,6.33
2018-09-01T23:08:37.323Z,6.37
2018-09-01T23:11:06.845Z,5.30
2018-09-01T23:13:35.500Z,6.10
2018-09-01T23:16:04.007Z,5.53
2018-09-01T23:18:32.550Z,5.90
2018-09-01T23:21:01.134Z,6.07
2018-09-01T23:23:29.731Z,6.13
2018-09-01T23:25:58.417Z,5.97
2018-09-01T23:28:27.056Z,5.90
2018-09-01T23:30:55.728Z,5.90
2018-09-01T23:33:24.508Z,5.57
2018-09-01T23:35:53.159Z,6.63
2018-09-01T23:38:21.702Z,5.53
2018-09-01T23:40:50.361Z,6.10
2018-09-01T23:43:19.046Z,5.93
2018-09-01T23:45:47.690Z,5.50
2018-09-01T23:48:16.296Z,6.47
2018-09-01T23:50:45.033Z,6.07
2018-09-01T23:53:13.605Z,6.03
2018-09-01T23:55:42.343Z,5.83
2018-09-01T23:58:10.917Z,6.50
